Time;durP1;ratioP1;P1;durP2;ratioP2;P2;SDS_P1;SDS_P2;PMS_P1;PMS_P2;Temp;Humidity;BMP_temperature;BMP_pressure;BME280_temperature;BME280_humidity;BME280_pressure;Samples;Min_cycle;Max_cycle;Signal;HPM_P1;HPM_P2
2022/12/15 07:35:53;;;;;;;;;74.33;60.00;;;;;-1.35;96.29;100434.09;6208380;22;1330548;-68
2022/12/15 07:38:19;;;;;;;;;73.67;59.33;;;;;-1.68;96.89;100409.66;6299435;22;49635;-67
2022/12/15 07:40:44;;;;;;;;;71.67;56.33;;;;;-1.40;97.24;100399.41;6322658;22;49687;-70
2022/12/15 07:43:10;;;;;;;;;72.00;57.00;;;;;-1.06;97.12;100455.56;6297639;22;49694;-68
2022/12/15 07:45:35;;;;;;;;;75.33;57.00;;;;;-1.96;96.32;100316.06;6296737;22;49840;-67
2022/12/15 07:48:00;;;;;;;;;73.67;58.00;;;;;-0.41;96.46;100569.59;6297375;22;49687;-71
2022/12/15 07:50:27;;;;;;;;;70.67;58.67;;;;;-1.58;96.47;100409.44;6297561;22;49648;-67
2022/12/15 07:52:53;;;;;;;;;84.00;60.33;;;;;-0.48;96.64;100558.03;6297717;22;50718;-68
2022/12/15 07:55:19;;;;;;;;;75.00;60.67;;;;;-1.90;97.15;100321.63;6297689;22;49815;-67
2022/12/15 07:57:46;;;;;;;;;76.00;58.33;;;;;-1.18;96.33;100397.34;6297767;22;49687;-73
2022/12/15 08:00:16;;;;;;;;;72.67;57.33;;;;;-0.13;95.05;100595.38;6297360;22;49602;-68
2022/12/15 08:02:41;;;;;;;;;82.00;64.00;;;;;-0.23;95.25;100547.47;6297256;22;51048;-67
2022/12/15 08:05:08;;;;;;;;;76.00;58.33;;;;;-0.15;93.92;100547.94;6296780;22;49806;-66
2022/12/15 08:07:33;;;;;;;;;80.67;55.67;;;;;0.05;93.33;100596.47;6297521;22;49889;-76
2022/12/15 08:09:58;;;;;;;;;82.00;58.33;;;;;-0.09;92.84;100564.69;6295852;22;50231;-70
2022/12/15 08:12:26;;;;;;;;;73.00;58.00;;;;;-0.20;93.66;100542.50;6294810;22;51969;-69
2022/12/15 08:14:51;;;;;;;;;87.67;63.67;;;;;-0.43;93.29;100494.72;6297940;22;49725;-72
2022/12/15 08:17:17;;;;;;;;;83.33;64.00;;;;;0.24;92.87;100594.19;6297564;22;49719;-70
2022/12/15 08:19:42;;;;;;;;;75.00;59.33;;;;;0.47;93.49;100618.75;6296918;22;49709;-71
2022/12/15 08:22:08;;;;;;;;;72.67;59.33;;;;;-1.10;92.99;100336.00;6297112;22;50296;-68
2022/12/15 08:24:34;;;;;;;;;77.00;58.00;;;;;0.61;91.63;100611.84;6296884;22;49828;-69
2022/12/15 08:26:59;;;;;;;;;79.00;59.67;;;;;0.65;90.68;100615.47;6297387;22;49534;-73
2022/12/15 08:29:24;;;;;;;;;74.00;60.00;;;;;0.75;90.64;100646.22;6295669;22;49954;-72
2022/12/15 08:31:50;;;;;;;;;73.00;59.33;;;;;-1.00;89.68;100345.19;6297173;22;49970;-69
2022/12/15 08:34:15;;;;;;;;;84.33;62.67;;;;;0.72;89.15;100625.38;6296459;22;50438;-68
2022/12/15 08:36:41;;;;;;;;;73.67;60.33;;;;;0.53;89.35;100576.91;6295691;22;49663;-70
2022/12/15 08:39:06;;;;;;;;;76.67;60.00;;;;;0.08;87.81;100526.97;6295881;22;49797;-68
2022/12/15 08:41:32;;;;;;;;;74.67;61.00;;;;;-0.21;87.19;100467.59;6296930;22;50790;-68
2022/12/15 08:43:59;;;;;;;;;77.00;59.67;;;;;0.65;87.39;100655.13;6296665;22;49969;-68
2022/12/15 08:46:30;;;;;;;;;84.33;65.67;;;;;-0.16;87.13;100479.09;6297019;22;49942;-67
2022/12/15 08:48:57;;;;;;;;;69.00;56.67;;;;;0.56;86.87;100626.16;6297665;22;50243;-69
2022/12/15 08:51:24;;;;;;;;;64.00;51.33;;;;;0.00;88.15;100551.47;6297060;22;50413;-68
2022/12/15 08:53:49;;;;;;;;;81.00;61.67;;;;;0.08;88.22;100550.19;6297314;22;49660;-67
2022/12/15 08:56:17;;;;;;;;;81.00;59.00;;;;;0.32;89.52;100592.06;6297290;22;49926;-67
2022/12/15 08:58:44;;;;;;;;;72.00;58.33;;;;;0.10;88.90;100553.78;6297094;22;49890;-69
2022/12/15 09:01:17;;;;;;;;;84.00;60.67;;;;;-1.22;88.58;100343.00;6294219;22;51593;-67
2022/12/15 09:03:43;;;;;;;;;73.00;55.33;;;;;0.07;88.75;100551.00;6295460;22;49819;-70
2022/12/15 09:06:14;;;;;;;;;82.67;60.00;;;;;0.22;89.26;100557.06;6295184;22;49784;-68
2022/12/15 09:08:40;;;;;;;;;76.00;62.67;;;;;-0.63;88.53;100407.53;6297213;22;50018;-67
2022/12/15 09:11:05;;;;;;;;;79.00;63.67;;;;;0.73;88.22;100622.88;6296146;22;49845;-67
2022/12/15 09:13:31;;;;;;;;;77.67;63.33;;;;;0.50;88.68;100569.91;6295215;22;49712;-67
2022/12/15 09:15:57;;;;;;;;;74.00;58.67;;;;;0.75;88.28;100635.88;6295032;22;49994;-67
2022/12/15 09:18:23;;;;;;;;;75.00;61.00;;;;;0.64;88.15;100631.78;6297212;22;49849;-68
2022/12/15 09:20:48;;;;;;;;;70.33;56.33;;;;;0.77;88.74;100629.09;6297080;22;50653;-72
2022/12/15 09:23:14;;;;;;;;;77.00;62.67;;;;;0.76;86.62;100624.72;6295372;22;49785;-71
2022/12/15 09:25:39;;;;;;;;;83.33;67.00;;;;;0.78;87.77;100625.75;6296341;22;50087;-73
2022/12/15 09:28:05;;;;;;;;;66.33;52.67;;;;;0.84;87.78;100639.00;6297072;22;49738;-70
2022/12/15 09:30:30;;;;;;;;;83.33;58.00;;;;;0.79;85.93;100617.19;6296615;22;49857;-70
2022/12/15 09:32:55;;;;;;;;;76.00;59.00;;;;;0.03;86.79;100520.66;6296270;22;49618;-73
2022/12/15 09:35:21;;;;;;;;;64.67;48.33;;;;;-0.73;86.51;100382.03;6294923;22;49716;-71
2022/12/15 09:37:46;;;;;;;;;81.33;63.00;;;;;1.02;86.52;100632.28;6294831;22;49639;-68
2022/12/15 09:40:12;;;;;;;;;68.67;55.67;;;;;0.67;85.53;100581.16;6295194;22;61048;-70
2022/12/15 09:42:38;;;;;;;;;74.00;53.00;;;;;-0.36;85.37;100434.06;6296371;22;49837;-71
2022/12/15 09:45:20;;;;;;;;;75.33;61.00;;;;;1.06;84.54;100638.50;6297404;22;49709;-67
2022/12/15 09:48:03;;;;;;;;;69.33;58.33;;;;;1.22;84.04;100643.75;6296153;22;49753;-68
2022/12/15 09:50:34;;;;;;;;;68.00;58.00;;;;;0.88;84.82;100589.28;6296237;22;49959;-67
2022/12/15 09:53:02;;;;;;;;;80.33;61.00;;;;;1.07;84.54;100586.03;6295801;22;49794;-71
2022/12/15 09:55:29;;;;;;;;;79.00;61.33;;;;;0.96;83.47;100580.22;6296680;22;49533;-70
2022/12/15 09:58:03;;;;;;;;;73.00;58.00;;;;;1.56;84.34;100645.63;6292541;22;50228;-71
2022/12/15 10:00:51;;;;;;;;;78.33;62.00;;;;;1.67;83.15;100622.09;6295153;22;50888;-68
2022/12/15 10:03:32;;;;;;;;;76.67;60.67;;;;;1.75;82.34;100645.81;6295472;22;49813;-69
2022/12/15 10:06:13;;;;;;;;;77.33;61.00;;;;;1.89;82.55;100654.31;6295165;22;49645;-68
2022/12/15 10:08:45;;;;;;;;;77.33;61.67;;;;;1.95;81.36;100642.59;6296636;22;49738;-68
2022/12/15 10:11:25;;;;;;;;;76.33;60.67;;;;;1.71;81.00;100592.09;6296074;22;50442;-69
2022/12/15 10:13:57;;;;;;;;;69.67;56.00;;;;;0.57;80.36;100392.88;6293956;22;49745;-71
2022/12/15 10:16:52;;;;;;;;;73.33;56.67;;;;;1.12;79.59;100487.22;6297075;22;49782;-71
2022/12/15 10:19:37;;;;;;;;;77.33;60.00;;;;;2.22;80.14;100650.00;6297513;22;49722;-70
2022/12/15 10:22:03;;;;;;;;;82.00;62.67;;;;;1.77;78.46;100553.63;6298102;22;51022;-74
2022/12/15 10:24:30;;;;;;;;;72.00;58.00;;;;;1.17;78.09;100497.81;6301138;22;49884;-72
2022/12/15 10:27:05;;;;;;;;;74.33;57.33;;;;;2.20;78.32;100646.47;6300577;22;49731;-75
2022/12/15 10:29:42;;;;;;;;;75.33;59.00;;;;;2.09;77.25;100632.94;6308614;22;50017;-80
2022/12/15 10:32:14;;;;;;;;;80.67;59.00;;;;;1.69;77.53;100558.38;6296798;22;51378;-78
2022/12/15 10:34:39;;;;;;;;;72.67;57.67;;;;;1.97;78.90;100560.72;6294241;22;49916;-78
2022/12/15 10:37:05;;;;;;;;;71.67;56.67;;;;;1.34;77.79;100465.06;6296954;22;49923;-77
2022/12/15 10:39:39;;;;;;;;;72.00;56.33;;;;;2.39;77.54;100610.34;6297364;22;49664;-79
2022/12/15 10:42:25;;;;;;;;;71.00;54.33;;;;;0.70;78.05;100314.38;6296482;22;49902;-77
2022/12/15 10:44:56;;;;;;;;;69.00;56.67;;;;;1.63;76.95;100426.09;6297736;22;49882;-74
2022/12/15 10:47:25;;;;;;;;;79.33;62.00;;;;;2.08;75.98;100487.88;6297640;22;49801;-76
2022/12/15 10:49:52;;;;;;;;;48.67;38.00;;;;;1.54;76.12;100412.69;6297302;22;49598;-73
2022/12/15 10:52:36;;;;;;;;;70.33;56.33;;;;;1.83;75.61;100432.25;6297280;22;50639;-73
2022/12/15 10:55:38;;;;;;;;;79.00;60.67;;;;;2.78;74.62;100580.31;6298281;22;49773;-72
2022/12/15 10:58:16;;;;;;;;;69.33;57.67;;;;;2.81;74.08;100609.00;6297368;22;49952;-72
2022/12/15 11:00:41;;;;;;;;;78.33;60.33;;;;;1.23;73.54;100336.94;6297339;22;49716;-72
2022/12/15 11:03:22;;;;;;;;;70.00;53.00;;;;;1.63;73.41;100426.09;6297437;22;49917;-71
2022/12/15 11:05:55;;;;;;;;;74.33;58.00;;;;;1.87;74.35;100491.16;6297145;22;49520;-72
2022/12/15 11:08:22;;;;;;;;;70.00;53.67;;;;;2.21;74.05;100529.09;6297212;22;49684;-73
2022/12/15 11:14:04;;;;;;;;;70.67;57.00;;;;;1.79;74.93;100455.34;6295541;22;50099;-72
2022/12/15 11:16:30;;;;;;;;;69.00;56.00;;;;;1.70;75.38;100432.47;6296425;22;50381;-73
2022/12/15 11:19:10;;;;;;;;;51.00;44.67;;;;;0.82;73.95;100286.59;6296865;22;49818;-74
2022/12/15 11:21:43;;;;;;;;;63.67;47.00;;;;;1.69;73.23;100438.47;6296812;22;49782;-72
2022/12/15 11:24:47;;;;;;;;;66.67;55.67;;;;;2.40;74.15;100564.59;6295111;22;50595;-73
2022/12/15 11:27:25;;;;;;;;;49.00;44.33;;;;;1.28;73.81;100379.44;6296598;22;49623;-78
2022/12/15 11:30:01;;;;;;;;;70.00;54.00;;;;;1.58;73.88;100411.16;6296601;22;49689;-69
2022/12/15 11:32:33;;;;;;;;;61.00;50.33;;;;;2.17;73.51;100516.81;6296815;22;49628;-66
2022/12/15 11:34:59;;;;;;;;;66.33;53.33;;;;;2.29;73.89;100533.84;6296495;22;50802;-67
2022/12/15 11:37:43;;;;;;;;;68.67;51.33;;;;;2.24;74.30;100521.50;6296422;22;50450;-70
2022/12/15 11:40:27;;;;;;;;;62.00;52.00;;;;;2.25;74.17;100508.63;6295989;22;49711;-75
2022/12/15 11:43:02;;;;;;;;;59.00;49.00;;;;;2.34;74.30;100503.00;6297616;22;49741;-65
2022/12/15 11:45:39;;;;;;;;;66.67;55.00;;;;;1.99;73.45;100436.53;6294256;22;52429;-66
2022/12/15 11:48:42;;;;;;;;;66.00;54.67;;;;;2.51;73.31;100498.63;6297418;22;49971;-65
2022/12/15 11:51:19;;;;;;;;;73.33;53.00;;;;;2.58;72.93;100499.00;6296817;22;49679;-75
2022/12/15 11:53:54;;;;;;;;;71.33;55.00;;;;;2.66;71.24;100495.91;6297434;22;50067;-65
2022/12/15 11:56:38;;;;;;;;;74.33;58.00;;;;;2.69;71.24;100486.56;6296962;22;49961;-68
2022/12/15 11:59:15;;;;;;;;;64.00;53.67;;;;;2.70;70.16;100484.84;6297661;22;49830;-70
2022/12/15 12:02:02;;;;;;;;;68.33;51.67;;;;;2.59;69.11;100479.16;6296206;22;49781;-68
2022/12/15 12:04:41;;;;;;;;;38.67;38.33;;;;;2.43;69.70;100456.84;6297220;22;49797;-72
2022/12/15 12:07:27;;;;;;;;;61.33;51.67;;;;;2.37;69.56;100453.03;6296606;22;51269;-64
2022/12/15 12:10:41;;;;;;;;;56.33;44.67;;;;;0.98;69.37;100210.75;6297164;22;49680;-68
2022/12/15 12:13:43;;;;;;;;;50.33;45.33;;;;;2.48;67.81;100472.59;6231471;22;49991;-69
2022/12/15 12:16:20;;;;;;;;;49.00;43.33;;;;;2.46;68.31;100480.28;6231704;22;50234;-65
2022/12/15 12:19:05;;;;;;;;;61.33;50.67;;;;;2.05;69.22;100387.63;6286648;22;49963;-65
2022/12/15 12:21:42;;;;;;;;;56.00;49.00;;;;;1.91;67.94;100362.75;6295851;22;49765;-67
2022/12/15 12:24:22;;;;;;;;;50.00;45.33;;;;;2.45;67.61;100444.84;6295622;22;49713;-67
2022/12/15 12:26:58;;;;;;;;;63.33;51.67;;;;;2.02;67.43;100384.88;6298058;22;49514;-75
2022/12/15 12:29:46;;;;;;;;;54.33;48.00;;;;;2.14;67.08;100390.69;6298503;22;50882;-68
2022/12/15 12:32:40;;;;;;;;;60.67;46.33;;;;;2.53;67.94;100445.22;6298395;22;49810;-68
2022/12/15 12:35:21;;;;;;;;;68.67;50.67;;;;;2.42;67.34;100434.34;6297848;22;49619;-79
2022/12/15 12:38:08;;;;;;;;;60.67;45.67;;;;;2.36;67.26;100433.16;6297314;22;49911;-66
2022/12/15 12:40:39;;;;;;;;;67.00;50.00;;;;;2.46;67.55;100437.94;6296668;22;52403;-69
2022/12/15 12:43:09;;;;;;;;;45.33;42.67;;;;;2.43;66.66;100449.06;6298365;22;49843;-76
2022/12/15 12:45:54;;;;;;;;;38.33;38.33;;;;;1.44;67.64;100289.75;6295298;22;49846;-69
2022/12/15 12:48:52;;;;;;;;;56.67;45.33;;;;;2.45;68.13;100433.59;6296629;22;49564;-69
2022/12/15 12:51:35;;;;;;;;;61.33;50.67;;;;;2.23;67.96;100378.16;6235722;22;50142;-69
2022/12/15 12:54:01;;;;;;;;;63.67;53.33;;;;;2.56;67.86;100422.03;6295347;22;49796;-70
2022/12/15 12:56:41;;;;;;;;;61.67;47.33;;;;;2.63;68.56;100424.09;6295056;22;49641;-67
2022/12/15 12:59:28;;;;;;;;;48.33;37.67;;;;;2.64;67.83;100418.09;6296245;22;49611;-73
2022/12/15 13:01:55;;;;;;;;;55.67;46.00;;;;;2.28;67.84;100373.19;6296200;22;49709;-68
2022/12/15 13:04:32;;;;;;;;;44.67;39.67;;;;;2.62;67.50;100424.03;6292841;22;50067;-67
2022/12/15 13:07:02;;;;;;;;;56.33;45.67;;;;;2.43;67.07;100406.72;6294592;22;49732;-69
2022/12/15 13:09:42;;;;;;;;;59.67;47.00;;;;;2.27;67.91;100369.72;6294738;22;49783;-69
2022/12/15 13:13:14;;;;;;;;;65.67;53.00;;;;;2.68;68.76;100416.53;6296000;22;50824;-69
2022/12/15 13:15:44;;;;;;;;;77.67;56.00;;;;;1.61;67.35;100276.75;6273575;22;49991;-69
2022/12/15 13:18:16;;;;;;;;;63.67;51.33;;;;;2.50;68.30;100401.00;6296029;22;49629;-69
2022/12/15 13:20:44;;;;;;;;;69.00;56.33;;;;;2.74;68.60;100422.88;6296801;22;49589;-69
2022/12/15 13:23:16;;;;;;;;;58.33;47.00;;;;;2.73;67.29;100430.59;6295126;22;49805;-70
2022/12/15 13:25:43;;;;;;;;;64.33;50.00;;;;;1.68;66.18;100274.56;6295718;22;49836;-69
2022/12/15 13:28:38;;;;;;;;;62.67;50.67;;;;;2.65;66.45;100430.22;6296484;22;50007;-69
2022/12/15 13:31:16;;;;;;;;;60.33;48.67;;;;;2.74;65.52;100435.84;6293958;22;49913;-69
2022/12/15 13:33:47;;;;;;;;;57.25;49.25;;;;;2.74;65.16;100433.25;6295134;22;50796;-71
2022/12/15 13:36:35;;;;;;;;;54.25;48.00;;;;;2.72;65.78;100440.06;6293295;22;49734;-68
2022/12/15 13:39:11;;;;;;;;;53.75;38.75;;;;;1.16;65.39;100180.63;6295201;22;49725;-68
2022/12/15 13:41:39;;;;;;;;;49.33;43.33;;;;;2.74;65.64;100419.41;6297160;22;49889;-69
2022/12/15 13:44:39;;;;;;;;;66.00;49.67;;;;;2.33;64.86;100337.16;6296851;22;49873;-68
2022/12/15 13:47:31;;;;;;;;;48.67;44.33;;;;;2.81;63.69;100408.50;6292297;22;49588;-69
2022/12/15 13:50:27;;;;;;;;;49.50;42.50;;;;;2.26;62.73;100310.97;6292506;22;49588;-71
2022/12/15 13:52:55;;;;;;;;;40.75;33.50;;;;;2.16;61.12;100308.75;6296039;22;49722;-69
2022/12/15 13:55:25;;;;;;;;;55.25;42.50;;;;;2.73;60.74;100396.91;6298328;22;51407;-69
2022/12/15 13:57:55;;;;;;;;;35.50;32.25;;;;;2.36;59.55;100339.88;6295645;22;49602;-71
2022/12/15 14:00:21;;;;;;;;;40.50;35.25;;;;;2.40;58.91;100328.84;6295225;22;49747;-71
2022/12/15 14:02:47;;;;;;;;;43.25;38.25;;;;;2.26;56.98;100305.78;6295776;22;49782;-68
2022/12/15 14:05:20;;;;;;;;;55.00;46.33;;;;;2.78;57.67;100385.91;6295903;22;50638;-68
2022/12/15 14:07:56;;;;;;;;;47.00;40.50;;;;;2.79;57.05;100377.31;6296519;22;49773;-70
2022/12/15 14:10:49;;;;;;;;;35.00;31.00;;;;;2.78;56.56;100380.72;6296462;22;49896;-69
2022/12/15 14:13:27;;;;;;;;;34.75;30.75;;;;;2.79;55.61;100381.59;6297101;22;49725;-68
2022/12/15 14:15:58;;;;;;;;;41.00;38.25;;;;;2.71;56.22;100383.00;6296728;22;49926;-68
2022/12/15 14:18:23;;;;;;;;;38.00;35.33;;;;;2.73;55.58;100390.00;6296854;22;49731;-69
2022/12/15 14:20:49;;;;;;;;;35.00;32.50;;;;;2.70;55.72;100382.09;6295940;22;49719;-70
2022/12/15 14:23:25;;;;;;;;;40.75;33.75;;;;;2.48;55.21;100341.34;6295705;22;49687;-69
2022/12/15 14:26:01;;;;;;;;;39.25;36.25;;;;;2.78;53.71;100388.50;6295121;22;51984;-68
2022/12/15 14:28:30;;;;;;;;;32.00;32.00;;;;;2.54;53.68;100341.63;6296294;22;49771;-71
2022/12/15 14:30:59;;;;;;;;;34.50;29.00;;;;;2.93;54.04;100393.50;6293976;22;50010;-70
2022/12/15 14:33:25;;;;;;;;;34.25;32.75;;;;;2.72;52.86;100369.22;6320944;22;49731;-69
2022/12/15 14:35:55;;;;;;;;;28.00;25.75;;;;;2.95;52.05;100410.03;6296947;22;49704;-69
2022/12/15 14:38:31;;;;;;;;;30.75;29.25;;;;;2.74;52.77;100399.56;6296493;22;49660;-70
2022/12/15 14:41:00;;;;;;;;;28.75;25.50;;;;;2.93;52.71;100401.28;6295442;22;49665;-69
2022/12/15 14:43:31;;;;;;;;;35.50;30.50;;;;;2.94;52.07;100408.25;6296445;22;49788;-70
2022/12/15 14:46:07;;;;;;;;;32.50;28.00;;;;;3.01;50.37;100433.66;6295960;22;49848;-69
2022/12/15 14:48:38;;;;;;;;;30.50;26.75;;;;;2.79;49.50;100413.59;6296621;22;49791;-70
2022/12/15 14:51:04;;;;;;;;;34.25;27.50;;;;;2.48;48.97;100361.19;6297169;22;49625;-68
2022/12/15 14:53:34;;;;;;;;;34.00;29.25;;;;;2.57;48.87;100377.16;6295495;22;49857;-69
2022/12/15 14:56:32;;;;;;;;;26.50;22.00;;;;;2.61;47.75;100392.03;6295862;22;50409;-68
2022/12/15 14:59:02;;;;;;;;;24.50;24.50;;;;;2.42;46.97;100360.91;6259127;22;49647;-69
2022/12/15 15:01:40;;;;;;;;;26.50;21.50;;;;;2.38;47.85;100356.38;6294608;22;49739;-69
2022/12/15 15:04:29;;;;;;;;;25.00;22.00;;;;;2.81;48.08;100442.22;6294806;22;49958;-69
2022/12/15 15:06:56;;;;;;;;;29.00;25.50;;;;;2.47;48.68;100388.78;6292435;22;52452;-69
2022/12/15 15:09:25;;;;;;;;;29.50;25.75;;;;;2.40;48.29;100396.19;6295173;22;49852;-69
2022/12/15 15:11:54;;;;;;;;;20.00;15.75;;;;;2.67;48.76;100446.72;6294870;22;49950;-69
2022/12/15 15:14:27;;;;;;;;;18.00;18.00;;;;;1.74;48.52;100320.56;6297245;22;49706;-69
2022/12/15 15:17:08;;;;;;;;;26.50;24.25;;;;;2.67;48.83;100459.69;6296788;22;50894;-69
2022/12/15 15:19:37;;;;;;;;;30.00;30.00;;;;;2.66;48.74;100460.50;6295496;22;49708;-69
2022/12/15 15:22:03;;;;;;;;;31.75;30.00;;;;;2.60;48.56;100465.41;6297141;22;49769;-70
2022/12/15 15:24:33;;;;;;;;;27.50;26.25;;;;;2.22;49.15;100397.13;6292140;22;49781;-70
2022/12/15 15:27:28;;;;;;;;;32.25;28.25;;;;;2.20;48.52;100395.25;6294431;22;50800;-70
2022/12/15 15:30:12;;;;;;;;;22.50;22.50;;;;;2.35;49.11;100458.16;6296362;22;49719;-70
2022/12/15 15:32:52;;;;;;;;;43.25;33.25;;;;;2.40;49.72;100438.53;6297519;22;49692;-71
2022/12/15 15:35:18;;;;;;;;;22.25;19.75;;;;;2.36;49.99;100438.31;6297703;22;49775;-68
2022/12/15 15:37:44;;;;;;;;;29.25;20.25;;;;;2.50;51.08;100464.06;6296834;22;49671;-68
2022/12/15 15:40:12;;;;;;;;;38.50;28.50;;;;;2.02;51.11;100418.53;6296376;22;49786;-69
2022/12/15 15:42:37;;;;;;;;;25.25;20.50;;;;;2.45;51.23;100468.16;6296506;22;49824;-70
2022/12/15 15:45:03;;;;;;;;;29.25;28.50;;;;;2.41;52.07;100454.97;6296548;22;49894;-69
2022/12/15 15:47:28;;;;;;;;;31.00;26.50;;;;;2.41;53.07;100452.38;6296116;22;49884;-70
2022/12/15 15:49:58;;;;;;;;;33.75;23.75;;;;;1.76;53.39;100369.78;6295533;22;49930;-69
2022/12/15 15:52:24;;;;;;;;;33.00;28.00;;;;;0.90;54.46;100222.38;6295814;22;49784;-69
2022/12/15 15:54:51;;;;;;;;;34.75;31.50;;;;;2.39;54.91;100459.19;6294613;22;49695;-68
2022/12/15 15:57:17;;;;;;;;;31.25;28.25;;;;;2.53;55.45;100479.78;6295548;22;49946;-69
2022/12/15 15:59:43;;;;;;;;;44.25;32.25;;;;;0.87;56.54;100189.53;6296686;22;49774;-69
2022/12/15 16:02:12;;;;;;;;;33.25;28.75;;;;;2.50;57.69;100492.56;6295791;22;49770;-69
2022/12/15 16:04:42;;;;;;;;;34.00;29.75;;;;;2.03;57.89;100415.16;6295569;22;49622;-70
2022/12/15 16:07:26;;;;;;;;;34.50;28.50;;;;;1.06;58.47;100282.69;6297159;22;51002;-70
2022/12/15 16:09:52;;;;;;;;;30.75;27.00;;;;;1.92;60.09;100409.44;6295705;22;49649;-69
2022/12/15 16:12:23;;;;;;;;;33.25;29.25;;;;;2.47;63.26;100523.53;6296970;22;49842;-69
2022/12/15 16:14:49;;;;;;;;;41.50;31.00;;;;;2.23;64.11;100479.19;6296789;22;49665;-69
2022/12/15 16:17:16;;;;;;;;;26.50;23.00;;;;;2.03;65.90;100446.22;6296519;22;49708;-70
2022/12/15 16:19:41;;;;;;;;;32.50;30.25;;;;;2.29;65.85;100492.41;6295622;22;49694;-70
2022/12/15 16:22:13;;;;;;;;;37.00;32.00;;;;;1.05;66.80;100311.91;6296035;22;49625;-69
2022/12/15 16:24:39;;;;;;;;;34.25;32.50;;;;;2.47;67.97;100535.59;6296115;22;49779;-70
2022/12/15 16:27:04;;;;;;;;;33.75;27.75;;;;;2.50;68.28;100540.91;6299389;22;50773;-69
2022/12/15 16:29:30;;;;;;;;;36.25;30.75;;;;;1.18;68.69;100333.25;6297048;22;49683;-69
2022/12/15 16:31:55;;;;;;;;;33.50;28.00;;;;;1.44;70.09;100413.03;6296346;22;49985;-69
2022/12/15 16:34:23;;;;;;;;;31.75;31.00;;;;;0.97;69.35;100322.69;6296181;22;49612;-69
2022/12/15 16:36:49;;;;;;;;;30.00;26.00;;;;;2.51;71.60;100584.13;6295880;22;49739;-70
2022/12/15 16:39:26;;;;;;;;;28.25;27.75;;;;;1.78;72.20;100445.81;6295490;22;50161;-69
2022/12/15 16:41:53;;;;;;;;;35.75;30.00;;;;;2.50;72.78;100575.47;6297356;22;49732;-69
2022/12/15 16:44:19;;;;;;;;;32.75;28.75;;;;;1.38;74.76;100387.75;6296934;22;49613;-69
2022/12/15 16:46:44;;;;;;;;;32.75;25.00;;;;;2.33;75.58;100560.81;6296915;22;50424;-69
2022/12/15 16:49:10;;;;;;;;;32.25;29.75;;;;;2.02;76.45;100514.34;6296467;22;49634;-69
2022/12/15 16:51:42;;;;;;;;;34.00;30.75;;;;;2.43;77.22;100581.19;6296377;22;49607;-69
2022/12/15 16:54:29;;;;;;;;;33.00;28.75;;;;;1.21;76.97;100414.44;6298094;22;49742;-68
2022/12/15 16:56:56;;;;;;;;;40.25;34.25;;;;;2.12;78.30;100557.13;6293951;22;52600;-73
2022/12/15 16:59:23;;;;;;;;;32.25;31.50;;;;;2.39;79.60;100594.78;6295279;22;49524;-71
2022/12/15 17:01:49;;;;;;;;;33.00;31.00;;;;;2.30;80.22;100581.38;6297452;22;50082;-76
2022/12/15 17:04:18;;;;;;;;;35.75;34.25;;;;;2.17;80.39;100564.31;6296780;22;49849;-69
2022/12/15 17:06:43;;;;;;;;;32.25;32.25;;;;;1.71;81.37;100522.22;6297200;22;49906;-67
2022/12/15 17:09:22;;;;;;;;;47.75;39.25;;;;;2.17;82.54;100563.44;6297076;22;49646;-71
2022/12/15 17:11:47;;;;;;;;;32.75;31.00;;;;;0.65;83.93;100320.97;6297399;22;49747;-71
2022/12/15 17:14:13;;;;;;;;;38.00;34.25;;;;;2.27;84.80;100582.09;6297537;22;49778;-73
2022/12/15 17:16:38;;;;;;;;;36.50;32.00;;;;;1.42;86.17;100448.28;6296226;22;49671;-72
2022/12/15 17:19:04;;;;;;;;;37.00;32.75;;;;;2.17;87.76;100578.97;6296803;22;49848;-69
2022/12/15 17:21:33;;;;;;;;;38.00;32.25;;;;;2.04;89.80;100580.06;6295563;22;49704;-69
2022/12/15 17:24:05;;;;;;;;;41.50;37.25;;;;;1.11;90.68;100430.25;6296199;22;50044;-69
2022/12/15 17:26:33;;;;;;;;;47.00;38.50;;;;;2.13;91.81;100587.41;6295391;22;52056;-70
2022/12/15 17:29:04;;;;;;;;;48.50;41.00;;;;;2.08;92.50;100583.69;6299229;22;49840;-70
2022/12/15 17:31:29;;;;;;;;;42.75;38.25;;;;;1.90;92.22;100534.44;6294988;22;49712;-69
2022/12/15 17:33:55;;;;;;;;;46.00;38.50;;;;;2.05;92.58;100599.94;6295096;22;49787;-69
2022/12/15 17:36:20;;;;;;;;;43.25;39.25;;;;;2.02;93.32;100586.81;6295855;22;50830;-69
2022/12/15 17:38:49;;;;;;;;;51.25;46.75;;;;;1.23;92.44;100458.47;6296329;22;49694;-70
2022/12/15 17:41:15;;;;;;;;;39.00;34.75;;;;;0.65;92.35;100350.28;6296294;22;49999;-69
2022/12/15 17:43:40;;;;;;;;;42.50;38.50;;;;;1.55;93.40;100523.16;6296758;22;49709;-70
2022/12/15 17:46:06;;;;;;;;;45.00;39.50;;;;;1.99;93.71;100590.16;6296169;22;49684;-69
2022/12/15 17:48:31;;;;;;;;;44.25;37.00;;;;;2.04;92.72;100597.28;6297023;22;49657;-69
2022/12/15 17:50:57;;;;;;;;;37.25;33.75;;;;;1.99;92.38;100594.44;6296636;22;49777;-69
2022/12/15 17:53:23;;;;;;;;;35.25;34.25;;;;;2.01;92.15;100603.19;6297317;22;49777;-69
2022/12/15 17:55:50;;;;;;;;;44.50;37.25;;;;;1.85;93.02;100578.19;6296754;22;51288;-69
2022/12/15 17:58:20;;;;;;;;;39.50;39.50;;;;;1.59;92.83;100545.75;6295905;22;49651;-69
2022/12/15 18:00:49;;;;;;;;;43.75;37.75;;;;;1.95;92.38;100603.75;6295435;22;49565;-68
2022/12/15 18:03:14;;;;;;;;;43.00;40.25;;;;;1.66;92.27;100572.88;6295482;22;50069;-68
2022/12/15 18:05:40;;;;;;;;;38.50;36.00;;;;;1.71;92.61;100593.00;6293875;22;50499;-69
2022/12/15 18:08:15;;;;;;;;;50.67;43.00;;;;;0.92;92.20;100433.56;6296736;22;50054;-69
2022/12/15 18:10:41;;;;;;;;;44.67;37.00;;;;;1.17;91.53;100494.34;6296053;22;49865;-69
2022/12/15 18:13:27;;;;;;;;;49.00;44.00;;;;;1.53;92.15;100548.00;6294984;22;49930;-69
2022/12/15 18:15:54;;;;;;;;;22.75;15.75;;;;;1.75;91.17;100624.22;6295482;22;50503;-69
2022/12/15 18:18:21;;;;;;;;;44.33;36.67;;;;;1.22;90.58;100536.84;6294263;22;49726;-63
2022/12/15 18:20:47;;;;;;;;;50.25;43.50;;;;;1.47;90.65;100577.88;6293619;22;49900;-63
2022/12/15 18:23:15;;;;;;;;;49.67;41.00;;;;;1.70;91.15;100626.56;6295833;22;50052;-65
2022/12/15 18:25:42;;;;;;;;;51.67;39.00;;;;;1.67;90.60;100619.53;6295479;22;50403;-63
2022/12/15 18:28:29;;;;;;;;;52.00;43.67;;;;;1.49;91.00;100587.47;6295833;22;49856;-64
2022/12/15 18:31:01;;;;;;;;;48.67;45.33;;;;;1.68;90.59;100634.25;6295586;22;49912;-64
2022/12/15 18:33:28;;;;;;;;;40.67;40.00;;;;;1.57;90.01;100624.13;6298388;22;49971;-69
2022/12/15 18:35:55;;;;;;;;;42.33;37.67;;;;;1.06;90.07;100537.69;6295777;22;50916;-64
2022/12/15 18:38:26;;;;;;;;;51.67;45.00;;;;;0.15;89.75;100418.13;6295065;22;49711;-69
2022/12/15 18:40:53;;;;;;;;;47.67;43.00;;;;;1.72;89.26;100648.22;6296390;22;50084;-65
2022/12/15 18:43:24;;;;;;;;;49.00;46.00;;;;;1.70;89.29;100653.31;6297925;22;49525;-70
2022/12/15 18:45:51;;;;;;;;;41.33;37.67;;;;;1.67;90.21;100653.16;6297488;22;50458;-64
2022/12/15 18:48:18;;;;;;;;;47.75;43.00;;;;;1.68;89.94;100654.06;6296946;22;49903;-62
2022/12/15 18:50:44;;;;;;;;;48.67;43.33;;;;;1.28;89.50;100589.78;6298112;22;49884;-60
2022/12/15 18:53:16;;;;;;;;;49.00;45.67;;;;;1.64;89.26;100646.91;6298428;22;50247;-62
2022/12/15 18:55:42;;;;;;;;;56.00;47.00;;;;;1.80;88.67;100657.28;6296686;22;50783;-60
2022/12/15 18:58:19;;;;;;;;;48.25;43.75;;;;;1.76;88.35;100654.47;6300102;22;49784;-62
2022/12/15 19:00:45;;;;;;;;;56.25;45.75;;;;;1.32;87.85;100580.50;6297442;22;49753;-62
2022/12/15 19:03:10;;;;;;;;;45.00;41.75;;;;;1.60;88.82;100626.88;6298313;22;49497;-61
2022/12/15 19:05:36;;;;;;;;;47.25;43.50;;;;;1.79;87.91;100672.75;6298246;22;70470;-61
2022/12/15 19:08:12;;;;;;;;;42.33;39.33;;;;;1.57;87.93;100634.47;6300131;22;49898;-62
2022/12/15 19:10:48;;;;;;;;;59.00;44.00;;;;;1.23;87.29;100595.50;6298640;22;49693;-67
2022/12/15 19:13:15;;;;;;;;;52.67;42.67;;;;;1.59;87.58;100651.84;6298427;22;49683;-70
2022/12/15 19:15:41;;;;;;;;;40.75;37.25;;;;;1.43;87.49;100618.19;6297650;22;50811;-63
2022/12/15 19:23:56;;;;;;;;;49.75;38.00;;;;;1.49;87.49;100646.97;6171461;23;50009;-68